aviador You're here:

LFCK Decoded Metar

CASTRES in FRANCE
Report Time2017-08-24 03:00:00
UTC Time2017-08-24 03:11:09
Flight Rules vfr VFR
Wind160° at 05 kt
W.Decomp.*RWY 14: 4.7 kt HW 1.7 kt RCW
W.Rank160° ranks 18
Current wind is above 160° avg. (4.4)
Visibility9999 m
Phenomena:N/A
Clouds:N/A
Expected CloudBase > 1,600 ft AGL from Temp-Dew spread
CeilingNone
Temp21°C
Dew Point17°C (78% RH)
QNH1017 hPa
Raw Report
METAR LFCK 240300Z AUTO 16005KT 120V190 CAVOK 21/17 Q1017=

Extra information for LFCK:More info

Metar Taf Metar & Taf Last 4 Metars F.Rules Stats Wind Profile Meteogram Temp Stats Airport Information Weather charts Add Link Nearby VenuesMetar ALERT Operation Metar Decoded Social comments